Bloomington, Indiana
Current Conditions -  °F | °C
As of 7:53 AM on Thursday 27 Nov 2014 (Local Time) from KBMG Reporting Station
Few Clouds Few Clouds  
Wind Chill: 19°   Ceiling: Unl
Heat Index: 26°   Visibility: 8mi
Dew Point: 20°   Wind: 6mph
Humidity: 78%   Direction: 330°NNW
Pressure: 30.28"   Gusts: NA
Location:  39.17°N, 86.53°W
Report Text: KBMG 271253Z 33005KT 8SM FEW017 M03/M07 A3028 RMK AO2 SLP262 T10331067
Loading
Personal Weather Stations






























Interactive Weather Map New forecast layout! Learn more

10-Day Weather Forecast

Advertisements
Track Severe Weather on mobile